Time;durP1;ratioP1;P1;durP2;ratioP2;P2;SDS_P1;SDS_P2;PMS_P1;PMS_P2;Temp;Humidity;BMP_temperature;BMP_pressure;BME280_temperature;BME280_humidity;BME280_pressure;Samples;Min_cycle;Max_cycle;Signal;HPM_P1;HPM_P2
2022/06/30 00:01:45;;;;;;;13.50;2.30;;;;;;;;;;5022534;28;20104;-63
2022/06/30 00:04:12;;;;;;;15.55;2.33;;;;;;;;;;5024974;28;20120;-61
2022/06/30 00:06:39;;;;;;;18.60;2.53;;;;;;;;;;5030146;28;20116;-64
2022/06/30 00:09:06;;;;;;;13.18;2.28;;;;;;;;;;5023655;28;20045;-66
2022/06/30 00:11:34;;;;;;;17.25;2.78;;;;;;;;;;5028473;28;20026;-62
2022/06/30 00:14:01;;;;;;;21.00;2.03;;;;;;;;;;5018763;28;20022;-63
2022/06/30 00:16:28;;;;;;;18.63;2.50;;;;;;;;;;5017135;28;20041;-65
2022/06/30 00:18:55;;;;;;;15.13;2.63;;;;;;;;;;5023788;28;20041;-63
2022/06/30 00:21:22;;;;;;;14.75;2.70;;;;;;;;;;5029710;28;20104;-61
2022/06/30 00:23:49;;;;;;;16.95;2.65;;;;;;;;;;5022269;28;20045;-60
2022/06/30 00:26:16;;;;;;;16.98;2.63;;;;;;;;;;5028653;28;20032;-61
2022/06/30 00:28:43;;;;;;;27.92;3.25;;;;;;;;;;5030229;28;20033;-61
2022/06/30 00:31:10;;;;;;;15.25;3.03;;;;;;;;;;5021713;28;20033;-61
2022/06/30 00:33:37;;;;;;;22.35;3.38;;;;;;;;;;5022857;28;20056;-61
2022/06/30 00:36:04;;;;;;;26.63;2.95;;;;;;;;;;5019730;28;20435;-61
2022/06/30 00:38:31;;;;;;;20.30;3.28;;;;;;;;;;5013960;28;20496;-61
2022/06/30 00:40:58;;;;;;;19.13;3.63;;;;;;;;;;5010454;28;20037;-62
2022/06/30 00:43:25;;;;;;;15.82;3.10;;;;;;;;;;5019611;28;20054;-61
2022/06/30 00:45:52;;;;;;;31.08;3.33;;;;;;;;;;5010435;28;20060;-62
2022/06/30 00:48:19;;;;;;;28.05;4.25;;;;;;;;;;5018000;28;20021;-61
2022/06/30 00:50:46;;;;;;;16.58;3.90;;;;;;;;;;5027007;28;20032;-62
2022/06/30 00:53:14;;;;;;;21.65;3.35;;;;;;;;;;5025810;28;20029;-61
2022/06/30 00:55:41;;;;;;;18.42;3.67;;;;;;;;;;5027398;28;20032;-62
2022/06/30 00:58:09;;;;;;;30.02;4.80;;;;;;;;;;5029998;28;20057;-61
2022/06/30 01:00:39;;;;;;;21.70;4.43;;;;;;;;;;5030785;28;20033;-62
2022/06/30 01:03:10;;;;;;;32.92;6.82;;;;;;;;;;5030178;28;20069;-61
2022/06/30 01:05:37;;;;;;;38.75;8.30;;;;;;;;;;5031060;28;20038;-61
2022/06/30 01:08:05;;;;;;;41.50;8.45;;;;;;;;;;5029769;28;20029;-61
2022/06/30 01:13:18;;;;;;;54.17;9.32;;;;;;;;;;5030821;28;20045;-61
2022/06/30 01:15:45;;;;;;;51.50;10.13;;;;;;;;;;5000998;28;20061;-62
2022/06/30 01:18:12;;;;;;;47.75;9.38;;;;;;;;;;5026057;28;20140;-61
2022/06/30 01:20:39;;;;;;;44.97;8.32;;;;;;;;;;5028552;28;20112;-61
2022/06/30 01:23:06;;;;;;;42.45;8.57;;;;;;;;;;5027417;28;20107;-62
2022/06/30 01:25:35;;;;;;;40.35;8.63;;;;;;;;;;5027401;28;20128;-62
2022/06/30 01:28:02;;;;;;;32.67;7.97;;;;;;;;;;5027967;28;20043;-62
2022/06/30 01:30:29;;;;;;;40.60;8.40;;;;;;;;;;5028435;28;20065;-62
2022/06/30 01:32:56;;;;;;;32.00;8.00;;;;;;;;;;5027427;28;20092;-61
2022/06/30 01:35:23;;;;;;;36.88;8.07;;;;;;;;;;5027603;28;20040;-61
2022/06/30 01:37:51;;;;;;;31.27;6.88;;;;;;;;;;5029296;28;20033;-62
2022/06/30 01:40:19;;;;;;;32.22;7.65;;;;;;;;;;5011080;28;20041;-62
2022/06/30 01:42:46;;;;;;;29.52;7.20;;;;;;;;;;5011157;28;20450;-62
2022/06/30 01:45:13;;;;;;;39.95;7.63;;;;;;;;;;5029313;28;20079;-62
2022/06/30 01:47:40;;;;;;;28.20;7.13;;;;;;;;;;5017494;28;20466;-62
2022/06/30 01:50:10;;;;;;;25.55;6.82;;;;;;;;;;5023320;28;20415;-62
2022/06/30 01:52:37;;;;;;;32.97;7.50;;;;;;;;;;5027334;28;20033;-61
2022/06/30 01:55:06;;;;;;;25.45;6.20;;;;;;;;;;5026132;28;20454;-61
2022/06/30 01:57:33;;;;;;;29.13;6.72;;;;;;;;;;5029183;28;20088;-61
2022/06/30 02:00:00;;;;;;;28.52;6.43;;;;;;;;;;5028297;28;20486;-61
2022/06/30 02:02:27;;;;;;;25.23;6.13;;;;;;;;;;5030431;28;20057;-62
2022/06/30 02:04:54;;;;;;;27.00;6.72;;;;;;;;;;5032292;28;20066;-61
2022/06/30 02:07:23;;;;;;;27.92;5.70;;;;;;;;;;5030359;28;20122;-61
2022/06/30 02:09:53;;;;;;;25.30;6.07;;;;;;;;;;5031120;28;20038;-62
2022/06/30 02:15:27;;;;;;;30.35;6.18;;;;;;;;;;5014510;28;20060;-61
2022/06/30 02:17:55;;;;;;;27.05;6.05;;;;;;;;;;5033427;28;20128;-61
2022/06/30 02:20:23;;;;;;;22.63;5.95;;;;;;;;;;5032639;28;20522;-62
2022/06/30 02:22:52;;;;;;;26.23;6.22;;;;;;;;;;5029338;28;20041;-61
2022/06/30 02:25:19;;;;;;;24.27;5.68;;;;;;;;;;5016237;28;20033;-61
2022/06/30 02:27:46;;;;;;;28.02;6.38;;;;;;;;;;5028287;28;20104;-61
2022/06/30 02:30:13;;;;;;;21.63;5.97;;;;;;;;;;5025413;28;20395;-62
2022/06/30 02:32:40;;;;;;;24.38;6.50;;;;;;;;;;5029435;28;20116;-62
2022/06/30 02:35:09;;;;;;;20.73;5.40;;;;;;;;;;5030111;28;20048;-62
2022/06/30 02:37:36;;;;;;;22.38;5.32;;;;;;;;;;5029320;28;20552;-62
2022/06/30 02:40:04;;;;;;;20.80;5.78;;;;;;;;;;5026921;28;20029;-62
2022/06/30 02:42:31;;;;;;;17.67;4.57;;;;;;;;;;5027254;28;20059;-62
2022/06/30 02:44:58;;;;;;;18.77;5.47;;;;;;;;;;5011196;28;20038;-62
2022/06/30 02:47:35;;;;;;;25.63;5.57;;;;;;;;;;5016406;28;20029;-61
2022/06/30 02:50:05;;;;;;;18.55;4.85;;;;;;;;;;5020201;28;20032;-61
2022/06/30 02:52:33;;;;;;;14.93;4.75;;;;;;;;;;5013834;28;20065;-61
2022/06/30 02:55:01;;;;;;;16.90;4.70;;;;;;;;;;5014525;28;20037;-62
2022/06/30 02:57:27;;;;;;;20.40;4.97;;;;;;;;;;5012956;28;20026;-61
2022/06/30 02:59:55;;;;;;;17.48;4.95;;;;;;;;;;5009937;28;20432;-62
2022/06/30 03:02:22;;;;;;;20.80;4.38;;;;;;;;;;5012429;28;20605;-62
2022/06/30 03:04:49;;;;;;;17.48;4.68;;;;;;;;;;5014866;28;20034;-62
2022/06/30 03:07:16;;;;;;;18.15;4.32;;;;;;;;;;5011845;28;20026;-62
2022/06/30 03:09:43;;;;;;;19.38;4.63;;;;;;;;;;5011455;28;20742;-61
2022/06/30 03:12:10;;;;;;;14.18;4.18;;;;;;;;;;5011634;28;20034;-62
2022/06/30 03:14:37;;;;;;;16.45;4.13;;;;;;;;;;5013170;28;20054;-62
2022/06/30 03:17:04;;;;;;;12.25;4.03;;;;;;;;;;5014323;28;20083;-62
2022/06/30 03:19:31;;;;;;;12.52;4.32;;;;;;;;;;5012333;28;20095;-62
2022/06/30 03:21:58;;;;;;;13.23;3.88;;;;;;;;;;5018126;28;20026;-62
2022/06/30 03:24:28;;;;;;;13.45;4.00;;;;;;;;;;5012090;28;20029;-61
2022/06/30 03:26:55;;;;;;;15.32;4.25;;;;;;;;;;5012816;28;20115;-61
2022/06/30 03:29:22;;;;;;;12.50;3.97;;;;;;;;;;5030099;28;20024;-61
2022/06/30 03:31:49;;;;;;;10.65;3.78;;;;;;;;;;5020419;28;20033;-61
2022/06/30 03:34:16;;;;;;;15.43;3.78;;;;;;;;;;5032031;28;20144;-61
2022/06/30 03:36:43;;;;;;;11.32;3.40;;;;;;;;;;5032575;28;20043;-62
2022/06/30 03:39:10;;;;;;;12.65;3.35;;;;;;;;;;5032764;28;20037;-62
2022/06/30 03:41:37;;;;;;;15.00;4.13;;;;;;;;;;5033025;28;20506;-62
2022/06/30 03:44:04;;;;;;;12.02;3.60;;;;;;;;;;5032143;28;20115;-62
2022/06/30 03:46:31;;;;;;;10.35;3.22;;;;;;;;;;5033215;28;20033;-61
2022/06/30 03:48:58;;;;;;;8.82;3.40;;;;;;;;;;5032953;28;20036;-62
2022/06/30 03:51:25;;;;;;;9.13;3.35;;;;;;;;;;5032447;28;20025;-62
2022/06/30 03:53:56;;;;;;;11.07;3.45;;;;;;;;;;5032315;28;20031;-61
2022/06/30 03:56:24;;;;;;;9.60;2.88;;;;;;;;;;5032806;28;20068;-61
2022/06/30 03:58:51;;;;;;;9.48;3.22;;;;;;;;;;5032804;28;20056;-61
2022/06/30 04:01:18;;;;;;;9.50;3.45;;;;;;;;;;5032202;28;20033;-62
2022/06/30 04:03:45;;;;;;;10.52;3.63;;;;;;;;;;5032706;28;20041;-61
2022/06/30 04:06:12;;;;;;;12.65;3.55;;;;;;;;;;5032105;28;20025;-61
2022/06/30 04:08:39;;;;;;;7.60;3.15;;;;;;;;;;5032452;28;20033;-62
2022/06/30 04:11:06;;;;;;;9.35;2.80;;;;;;;;;;5032010;28;20124;-62
2022/06/30 04:13:33;;;;;;;8.82;3.30;;;;;;;;;;5032612;28;20025;-61
2022/06/30 04:16:00;;;;;;;11.90;3.10;;;;;;;;;;5031488;28;20029;-61
2022/06/30 04:18:27;;;;;;;10.43;3.53;;;;;;;;;;5032758;28;20383;-61
2022/06/30 04:20:53;;;;;;;8.70;3.00;;;;;;;;;;5032108;28;20026;-61
2022/06/30 04:23:20;;;;;;;7.60;2.58;;;;;;;;;;5031908;28;20038;-61
2022/06/30 04:25:48;;;;;;;10.10;3.10;;;;;;;;;;5031606;28;20479;-61
2022/06/30 04:28:14;;;;;;;8.07;3.05;;;;;;;;;;5032510;28;20503;-61
2022/06/30 04:33:26;;;;;;;8.63;3.10;;;;;;;;;;5031897;28;20423;-61
2022/06/30 04:35:53;;;;;;;8.45;2.70;;;;;;;;;;5032108;28;20030;-61
2022/06/30 04:38:20;;;;;;;7.05;2.70;;;;;;;;;;5031549;28;20104;-62
2022/06/30 04:43:32;;;;;;;5.72;2.15;;;;;;;;;;5032191;28;20060;-62
2022/06/30 04:45:59;;;;;;;7.35;2.30;;;;;;;;;;5032263;28;20442;-62
2022/06/30 04:48:26;;;;;;;6.78;2.42;;;;;;;;;;5031856;28;20041;-61
2022/06/30 04:50:53;;;;;;;6.78;2.28;;;;;;;;;;5031821;28;20033;-61
2022/06/30 04:53:20;;;;;;;6.07;2.10;;;;;;;;;;5031649;28;20022;-62
2022/06/30 04:55:47;;;;;;;6.20;2.10;;;;;;;;;;5031382;28;20044;-61
2022/06/30 04:58:14;;;;;;;5.00;1.77;;;;;;;;;;5031999;28;20109;-62
2022/06/30 05:00:41;;;;;;;7.20;2.30;;;;;;;;;;5031055;28;20041;-62
2022/06/30 05:03:08;;;;;;;5.70;2.00;;;;;;;;;;5032062;28;20492;-61
2022/06/30 05:05:35;;;;;;;4.05;1.90;;;;;;;;;;5031563;28;20033;-61
2022/06/30 05:08:02;;;;;;;4.32;1.70;;;;;;;;;;5031924;28;20444;-62
2022/06/30 05:10:29;;;;;;;8.00;2.00;;;;;;;;;;5031115;28;20112;-62
2022/06/30 05:12:56;;;;;;;4.75;1.95;;;;;;;;;;5031631;28;20080;-61
2022/06/30 05:15:23;;;;;;;5.78;2.10;;;;;;;;;;5031490;28;20037;-62
2022/06/30 05:17:50;;;;;;;7.00;2.38;;;;;;;;;;5031558;28;20036;-62
2022/06/30 05:20:17;;;;;;;7.40;2.08;;;;;;;;;;5030894;28;20036;-61
2022/06/30 05:22:44;;;;;;;4.68;1.75;;;;;;;;;;5031870;28;20026;-61
2022/06/30 05:27:56;;;;;;;4.57;1.60;;;;;;;;;;5031355;28;20095;-61
2022/06/30 05:30:23;;;;;;;3.15;1.48;;;;;;;;;;5035081;28;20056;-62
2022/06/30 05:32:50;;;;;;;5.53;1.55;;;;;;;;;;5034599;28;20053;-61
2022/06/30 05:35:17;;;;;;;4.43;1.52;;;;;;;;;;5035725;28;20033;-61
2022/06/30 05:37:44;;;;;;;5.25;1.55;;;;;;;;;;5035194;28;20387;-61
2022/06/30 05:40:11;;;;;;;4.85;1.77;;;;;;;;;;5035222;28;20422;-62
2022/06/30 05:42:38;;;;;;;3.45;1.30;;;;;;;;;;5034459;28;20045;-62
2022/06/30 05:45:05;;;;;;;2.45;1.33;;;;;;;;;;5034962;28;20037;-61
2022/06/30 05:47:32;;;;;;;5.60;1.60;;;;;;;;;;5035205;28;20044;-61
2022/06/30 05:49:59;;;;;;;4.65;1.63;;;;;;;;;;5035355;28;20112;-61
2022/06/30 05:52:26;;;;;;;2.40;1.20;;;;;;;;;;5034580;28;20028;-61
2022/06/30 05:54:56;;;;;;;5.55;1.50;;;;;;;;;;5034857;28;20034;-62
2022/06/30 05:57:23;;;;;;;6.60;1.50;;;;;;;;;;5034919;28;20026;-61
2022/06/30 05:59:50;;;;;;;4.25;1.67;;;;;;;;;;5034949;28;20028;-61
2022/06/30 06:02:17;;;;;;;3.00;1.42;;;;;;;;;;5034178;28;20025;-61
2022/06/30 06:04:43;;;;;;;2.97;1.40;;;;;;;;;;5034481;28;20064;-62
2022/06/30 06:07:10;;;;;;;6.13;1.50;;;;;;;;;;5034658;28;20064;-62
2022/06/30 06:09:37;;;;;;;3.22;1.40;;;;;;;;;;5034407;28;20072;-61
2022/06/30 06:12:05;;;;;;;3.20;1.40;;;;;;;;;;5034999;28;20060;-61
2022/06/30 06:14:31;;;;;;;4.38;1.45;;;;;;;;;;5033952;28;20036;-62
2022/06/30 06:16:58;;;;;;;2.85;1.52;;;;;;;;;;5034404;28;20026;-61
2022/06/30 06:19:25;;;;;;;3.67;1.55;;;;;;;;;;5034279;28;20068;-62
2022/06/30 06:21:52;;;;;;;2.95;1.40;;;;;;;;;;5026779;28;20048;-61
2022/06/30 06:24:19;;;;;;;4.30;1.50;;;;;;;;;;5032799;28;20025;-61
2022/06/30 06:26:46;;;;;;;2.88;1.25;;;;;;;;;;5034461;28;20416;-61
2022/06/30 06:29:14;;;;;;;4.88;1.42;;;;;;;;;;5034540;28;20032;-61
2022/06/30 06:31:41;;;;;;;2.50;1.02;;;;;;;;;;5033541;28;20040;-61
2022/06/30 06:34:08;;;;;;;3.08;1.10;;;;;;;;;;5034047;28;20045;-62
2022/06/30 06:36:36;;;;;;;2.67;1.05;;;;;;;;;;5034532;28;20045;-61
2022/06/30 06:39:03;;;;;;;2.47;1.30;;;;;;;;;;5033775;28;20041;-61
2022/06/30 06:41:30;;;;;;;2.45;1.17;;;;;;;;;;5034359;28;20045;-62
2022/06/30 06:43:57;;;;;;;2.92;1.33;;;;;;;;;;5033488;28;20037;-61
2022/06/30 06:46:27;;;;;;;3.88;1.20;;;;;;;;;;5034138;28;20390;-61
2022/06/30 06:48:59;;;;;;;2.40;1.20;;;;;;;;;;5033626;28;20021;-61
2022/06/30 06:51:27;;;;;;;1.75;0.82;;;;;;;;;;5034013;28;20419;-61
2022/06/30 06:53:55;;;;;;;2.58;1.00;;;;;;;;;;5033807;28;20025;-62
2022/06/30 06:56:22;;;;;;;1.70;0.98;;;;;;;;;;5033615;28;20029;-61
2022/06/30 06:58:49;;;;;;;2.10;0.88;;;;;;;;;;5033541;28;20037;-62
2022/06/30 07:01:16;;;;;;;2.35;1.10;;;;;;;;;;5033950;28;20021;-62
2022/06/30 07:03:43;;;;;;;4.57;1.30;;;;;;;;;;5024980;28;20403;-61
2022/06/30 07:06:10;;;;;;;2.50;1.05;;;;;;;;;;5033611;28;20487;-61
2022/06/30 07:08:37;;;;;;;3.42;1.00;;;;;;;;;;5033196;28;20460;-61
2022/06/30 07:11:05;;;;;;;1.67;0.88;;;;;;;;;;5034171;28;20029;-61
2022/06/30 07:16:40;;;;;;;1.92;1.00;;;;;;;;;;5034650;28;20038;-61
2022/06/30 07:19:07;;;;;;;3.25;1.13;;;;;;;;;;4998976;28;20416;-61
2022/06/30 07:21:34;;;;;;;2.28;1.08;;;;;;;;;;5012151;28;20518;-61
2022/06/30 07:24:05;;;;;;;1.40;0.80;;;;;;;;;;5013234;28;20034;-61
2022/06/30 07:26:32;;;;;;;2.40;1.02;;;;;;;;;;5012439;28;20061;-61
2022/06/30 07:28:59;;;;;;;2.67;0.95;;;;;;;;;;5013208;28;20030;-61
2022/06/30 07:31:26;;;;;;;2.58;0.98;;;;;;;;;;5002941;28;20033;-61
2022/06/30 07:33:53;;;;;;;1.58;0.80;;;;;;;;;;4992587;28;20149;-61
2022/06/30 07:36:20;;;;;;;1.48;0.82;;;;;;;;;;4993243;28;20026;-61
2022/06/30 07:38:49;;;;;;;2.22;0.90;;;;;;;;;;4993092;28;20029;-61
2022/06/30 07:41:16;;;;;;;4.03;1.02;;;;;;;;;;4993074;28;20088;-61
2022/06/30 07:43:43;;;;;;;1.25;0.85;;;;;;;;;;5001959;28;20404;-62
2022/06/30 07:46:11;;;;;;;2.10;0.98;;;;;;;;;;4993903;28;20089;-62
2022/06/30 07:48:38;;;;;;;2.30;0.93;;;;;;;;;;4992826;28;20096;-61
2022/06/30 07:51:06;;;;;;;2.17;0.80;;;;;;;;;;4992457;28;20018;-61
2022/06/30 07:53:33;;;;;;;3.80;1.00;;;;;;;;;;4993305;28;20073;-61
2022/06/30 07:56:00;;;;;;;1.50;0.63;;;;;;;;;;4992778;28;20046;-61
2022/06/30 07:58:27;;;;;;;1.75;0.80;;;;;;;;;;4992673;28;20022;-61
2022/06/30 08:00:54;;;;;;;1.65;0.70;;;;;;;;;;4992203;28;20022;-61
2022/06/30 08:03:21;;;;;;;1.63;0.70;;;;;;;;;;4975339;28;20487;-61
2022/06/30 08:05:47;;;;;;;3.90;0.80;;;;;;;;;;4992329;28;20032;-62
2022/06/30 08:08:14;;;;;;;2.13;0.70;;;;;;;;;;4993248;28;20057;-62
2022/06/30 08:10:41;;;;;;;0.80;0.52;;;;;;;;;;5008503;28;20025;-61
2022/06/30 08:13:09;;;;;;;1.80;0.75;;;;;;;;;;5012254;28;20065;-61
2022/06/30 08:15:36;;;;;;;1.60;0.68;;;;;;;;;;5011940;28;20026;-61
2022/06/30 08:18:06;;;;;;;4.22;1.02;;;;;;;;;;5012278;28;20084;-61
2022/06/30 08:20:33;;;;;;;1.00;0.70;;;;;;;;;;5011446;28;20021;-61
2022/06/30 08:23:00;;;;;;;0.90;0.70;;;;;;;;;;5011797;28;20104;-61
2022/06/30 08:25:28;;;;;;;1.33;0.60;;;;;;;;;;5012166;28;20826;-61
2022/06/30 08:27:55;;;;;;;1.40;0.60;;;;;;;;;;5011420;28;20054;-61
2022/06/30 08:30:23;;;;;;;1.23;0.60;;;;;;;;;;5012343;28;20025;-61
2022/06/30 08:32:50;;;;;;;1.17;0.52;;;;;;;;;;5011055;28;20029;-61
2022/06/30 08:35:17;;;;;;;0.82;0.52;;;;;;;;;;5012280;28;20492;-61
2022/06/30 08:37:44;;;;;;;1.33;0.68;;;;;;;;;;4994209;28;20498;-61
2022/06/30 08:42:57;;;;;;;1.80;0.90;;;;;;;;;;5012444;28;20040;-61
2022/06/30 08:45:25;;;;;;;1.10;0.60;;;;;;;;;;5011800;28;20030;-61
2022/06/30 08:47:52;;;;;;;1.15;0.60;;;;;;;;;;5011535;28;20045;-62
2022/06/30 08:50:19;;;;;;;1.20;0.70;;;;;;;;;;5012076;28;20022;-62
2022/06/30 08:52:46;;;;;;;0.90;0.57;;;;;;;;;;5011642;28;20148;-62
2022/06/30 08:55:14;;;;;;;1.80;0.70;;;;;;;;;;5011561;28;20440;-61
2022/06/30 08:57:45;;;;;;;1.08;0.60;;;;;;;;;;5011778;28;20022;-61
2022/06/30 09:00:13;;;;;;;0.82;0.60;;;;;;;;;;5011424;28;20030;-61
2022/06/30 09:02:40;;;;;;;1.65;0.85;;;;;;;;;;5011550;28;20495;-61
2022/06/30 09:05:07;;;;;;;1.20;0.60;;;;;;;;;;5014288;28;20030;-61
2022/06/30 09:07:34;;;;;;;1.50;0.60;;;;;;;;;;5015023;28;20029;-61
2022/06/30 09:10:01;;;;;;;1.10;0.60;;;;;;;;;;5015331;28;20025;-61
2022/06/30 09:12:29;;;;;;;0.90;0.70;;;;;;;;;;5015145;28;20026;-61
2022/06/30 09:14:56;;;;;;;0.88;0.60;;;;;;;;;;5015099;28;20554;-62
2022/06/30 09:17:24;;;;;;;1.55;0.60;;;;;;;;;;5015823;28;20053;-61
2022/06/30 09:19:55;;;;;;;2.80;0.60;;;;;;;;;;5015519;28;20065;-62
2022/06/30 09:22:23;;;;;;;1.30;0.47;;;;;;;;;;5015483;28;20492;-61
2022/06/30 09:25:01;;;;;;;3.42;0.63;;;;;;;;;;5014554;28;20152;-61
2022/06/30 09:27:29;;;;;;;1.10;0.70;;;;;;;;;;4997122;28;20045;-61
2022/06/30 09:30:00;;;;;;;2.35;0.60;;;;;;;;;;5015365;28;20488;-61
2022/06/30 09:32:27;;;;;;;0.95;0.70;;;;;;;;;;5014825;28;20026;-61
2022/06/30 09:34:54;;;;;;;1.20;0.60;;;;;;;;;;4997029;28;20058;-61
2022/06/30 09:37:24;;;;;;;0.75;0.38;;;;;;;;;;5015016;28;20388;-61
2022/06/30 09:39:54;;;;;;;1.15;0.60;;;;;;;;;;5014755;28;20026;-62
2022/06/30 09:42:50;;;;;;;1.13;0.55;;;;;;;;;;5014550;28;20030;-62
2022/06/30 09:45:32;;;;;;;1.83;0.63;;;;;;;;;;4985013;28;20495;-62
2022/06/30 09:47:59;;;;;;;1.20;0.50;;;;;;;;;;5014958;28;20030;-61
2022/06/30 09:50:26;;;;;;;0.88;0.40;;;;;;;;;;4996730;28;20441;-61
2022/06/30 09:53:06;;;;;;;1.20;0.40;;;;;;;;;;4996711;28;20030;-62
2022/06/30 09:55:38;;;;;;;1.17;0.60;;;;;;;;;;5014772;28;20125;-62
2022/06/30 09:58:05;;;;;;;1.13;0.50;;;;;;;;;;5015006;28;20029;-62
2022/06/30 10:00:42;;;;;;;1.17;0.65;;;;;;;;;;5014940;28;20037;-62
2022/06/30 10:03:09;;;;;;;1.73;0.47;;;;;;;;;;5010419;28;20054;-62
2022/06/30 10:05:36;;;;;;;1.85;0.50;;;;;;;;;;5008814;28;20128;-62
2022/06/30 10:08:03;;;;;;;1.65;0.60;;;;;;;;;;4995076;28;20030;-62
2022/06/30 10:10:30;;;;;;;2.72;0.50;;;;;;;;;;5011211;28;20072;-62
2022/06/30 10:12:57;;;;;;;0.50;0.40;;;;;;;;;;5007364;28;20412;-61
2022/06/30 10:15:25;;;;;;;2.95;0.50;;;;;;;;;;5010434;28;20033;-61
2022/06/30 10:17:53;;;;;;;2.80;0.40;;;;;;;;;;5008830;28;20055;-61
2022/06/30 10:20:21;;;;;;;0.88;0.50;;;;;;;;;;5013607;28;20480;-61
2022/06/30 10:22:48;;;;;;;1.50;0.50;;;;;;;;;;5012623;28;20044;-61
2022/06/30 10:25:16;;;;;;;1.02;0.52;;;;;;;;;;5012555;28;20486;-62
2022/06/30 10:27:46;;;;;;;0.70;0.35;;;;;;;;;;5009638;28;20026;-61
2022/06/30 10:30:17;;;;;;;1.15;0.60;;;;;;;;;;5012354;28;20022;-62
2022/06/30 10:32:43;;;;;;;0.93;0.40;;;;;;;;;;5012315;28;20038;-61
2022/06/30 10:35:29;;;;;;;1.00;0.50;;;;;;;;;;5013684;28;20149;-62
2022/06/30 10:38:02;;;;;;;4.57;0.50;;;;;;;;;;5013458;28;20034;-61
2022/06/30 10:40:47;;;;;;;0.80;0.50;;;;;;;;;;5011330;28;20061;-60
2022/06/30 10:43:16;;;;;;;1.23;0.60;;;;;;;;;;5013256;28;20037;-60
2022/06/30 10:46:03;;;;;;;1.63;0.43;;;;;;;;;;5013986;28;20030;-61
2022/06/30 10:48:49;;;;;;;0.98;0.43;;;;;;;;;;5012687;28;20472;-61
2022/06/30 10:51:16;;;;;;;1.73;0.60;;;;;;;;;;5012816;28;20036;-61
2022/06/30 10:53:43;;;;;;;1.33;0.52;;;;;;;;;;5012683;28;20076;-61
2022/06/30 10:56:10;;;;;;;3.17;0.70;;;;;;;;;;4995363;28;20447;-60
2022/06/30 10:58:37;;;;;;;2.38;0.98;;;;;;;;;;5012939;28;20040;-60
2022/06/30 11:01:12;;;;;;;1.40;0.60;;;;;;;;;;5013846;28;20044;-61
2022/06/30 11:03:39;;;;;;;1.70;0.68;;;;;;;;;;5012935;28;20065;-62
2022/06/30 11:06:07;;;;;;;2.47;0.80;;;;;;;;;;5013241;28;20084;-60
2022/06/30 11:08:47;;;;;;;1.85;0.88;;;;;;;;;;5013257;28;20484;-61
2022/06/30 11:11:26;;;;;;;3.10;0.70;;;;;;;;;;5012964;28;20408;-60
2022/06/30 11:13:52;;;;;;;2.05;0.70;;;;;;;;;;5013171;28;20033;-60
2022/06/30 11:16:22;;;;;;;2.40;0.70;;;;;;;;;;5012606;28;20483;-61
2022/06/30 11:18:49;;;;;;;3.58;0.88;;;;;;;;;;5013401;28;20080;-61
2022/06/30 11:21:16;;;;;;;2.35;0.80;;;;;;;;;;5013286;28;20034;-61
2022/06/30 11:23:45;;;;;;;2.95;0.90;;;;;;;;;;5013179;28;20053;-60
2022/06/30 11:28:59;;;;;;;3.05;1.10;;;;;;;;;;5013032;28;20088;-60
2022/06/30 11:31:26;;;;;;;1.83;0.95;;;;;;;;;;5013362;28;20038;-61
2022/06/30 11:33:59;;;;;;;2.05;0.70;;;;;;;;;;5012984;28;20050;-61
2022/06/30 11:36:26;;;;;;;5.60;0.90;;;;;;;;;;5012079;28;20030;-61
2022/06/30 11:38:54;;;;;;;3.10;1.08;;;;;;;;;;5011521;28;20033;-60
2022/06/30 11:44:13;;;;;;;2.00;0.82;;;;;;;;;;5012282;28;20100;-60
2022/06/30 11:46:55;;;;;;;3.10;1.00;;;;;;;;;;5012098;28;20130;-61
2022/06/30 11:49:23;;;;;;;2.30;0.98;;;;;;;;;;5009358;28;20451;-61
2022/06/30 11:51:50;;;;;;;2.35;0.93;;;;;;;;;;5011976;28;20485;-61
2022/06/30 11:54:22;;;;;;;1.75;0.90;;;;;;;;;;5012220;28;20052;-61
2022/06/30 11:56:57;;;;;;;5.70;1.48;;;;;;;;;;5010359;28;20077;-60
2022/06/30 11:59:24;;;;;;;2.75;0.77;;;;;;;;;;5011391;28;20036;-59
2022/06/30 12:02:04;;;;;;;2.22;1.00;;;;;;;;;;5008329;28;20065;-60
2022/06/30 12:04:32;;;;;;;5.30;1.42;;;;;;;;;;4999071;28;20049;-64
2022/06/30 12:07:01;;;;;;;2.65;1.20;;;;;;;;;;5011710;28;20038;-64
2022/06/30 12:09:28;;;;;;;4.28;1.38;;;;;;;;;;5011588;28;20257;-62
2022/06/30 12:11:55;;;;;;;3.65;1.63;;;;;;;;;;5011336;28;20107;-62
2022/06/30 12:14:22;;;;;;;3.95;1.10;;;;;;;;;;4990438;28;20396;-61
2022/06/30 12:16:54;;;;;;;5.88;1.52;;;;;;;;;;5011415;28;20034;-62
2022/06/30 12:19:25;;;;;;;4.30;1.70;;;;;;;;;;5009419;28;20073;-62
2022/06/30 12:21:53;;;;;;;6.65;1.90;;;;;;;;;;5005890;28;20546;-62
2022/06/30 12:24:21;;;;;;;5.13;1.88;;;;;;;;;;5010725;28;20069;-62
2022/06/30 12:26:55;;;;;;;6.93;1.70;;;;;;;;;;5010588;28;20041;-62
2022/06/30 12:29:23;;;;;;;6.32;1.65;;;;;;;;;;5010957;28;20499;-62
2022/06/30 12:32:01;;;;;;;9.00;2.05;;;;;;;;;;5010812;28;20037;-62
2022/06/30 12:34:28;;;;;;;11.38;1.90;;;;;;;;;;5009765;28;20057;-63
2022/06/30 12:37:01;;;;;;;8.30;1.80;;;;;;;;;;5009908;28;20037;-63
2022/06/30 12:39:29;;;;;;;11.82;2.20;;;;;;;;;;5009936;28;20173;-63
2022/06/30 12:42:03;;;;;;;11.35;2.30;;;;;;;;;;5011218;28;20036;-64
2022/06/30 12:44:35;;;;;;;8.32;2.03;;;;;;;;;;5009937;28;20506;-62
2022/06/30 12:47:09;;;;;;;8.20;1.83;;;;;;;;;;5010686;28;20100;-62
2022/06/30 12:49:37;;;;;;;9.57;1.95;;;;;;;;;;5009706;28;20123;-62
2022/06/30 12:52:21;;;;;;;14.52;2.50;;;;;;;;;;5010268;28;20107;-62
2022/06/30 12:54:52;;;;;;;10.10;1.85;;;;;;;;;;5010522;28;20038;-63
2022/06/30 12:57:19;;;;;;;7.10;1.98;;;;;;;;;;5010374;28;20034;-62
2022/06/30 12:59:48;;;;;;;10.93;2.00;;;;;;;;;;5009614;28;20032;-62
2022/06/30 13:02:16;;;;;;;6.57;1.92;;;;;;;;;;5011008;28;20038;-62
2022/06/30 13:04:55;;;;;;;8.48;2.13;;;;;;;;;;5010503;28;20038;-62
2022/06/30 13:07:22;;;;;;;6.97;1.80;;;;;;;;;;5010384;28;20120;-62
2022/06/30 13:09:50;;;;;;;7.32;1.77;;;;;;;;;;5010420;28;20165;-64
2022/06/30 13:12:18;;;;;;;8.38;1.90;;;;;;;;;;5008913;28;20038;-62
2022/06/30 13:14:45;;;;;;;11.45;1.63;;;;;;;;;;5010539;28;20033;-63
2022/06/30 13:17:12;;;;;;;11.05;1.70;;;;;;;;;;5010220;28;20045;-62
2022/06/30 13:19:39;;;;;;;10.98;1.55;;;;;;;;;;5001414;28;20146;-63
2022/06/30 13:22:07;;;;;;;9.05;1.92;;;;;;;;;;4989738;28;20148;-62
2022/06/30 13:24:35;;;;;;;12.05;1.67;;;;;;;;;;4990399;28;20038;-62
2022/06/30 13:27:03;;;;;;;17.65;2.58;;;;;;;;;;4994347;28;20034;-61
2022/06/30 13:29:33;;;;;;;13.98;2.03;;;;;;;;;;4989253;28;20097;-61
2022/06/30 13:32:00;;;;;;;6.53;1.85;;;;;;;;;;4990991;28;20035;-61
2022/06/30 13:34:27;;;;;;;15.65;2.17;;;;;;;;;;4989837;28;20042;-61
2022/06/30 13:36:54;;;;;;;9.82;1.88;;;;;;;;;;4990737;28;20568;-62
2022/06/30 13:39:21;;;;;;;10.77;1.70;;;;;;;;;;4989466;28;20026;-62
2022/06/30 13:41:48;;;;;;;12.82;1.80;;;;;;;;;;4990765;28;20022;-62
2022/06/30 13:44:15;;;;;;;8.55;1.48;;;;;;;;;;4990158;28;20038;-62
2022/06/30 13:46:42;;;;;;;14.38;1.80;;;;;;;;;;4990020;28;20064;-62
2022/06/30 13:49:09;;;;;;;8.38;1.50;;;;;;;;;;4989381;28;20676;-63
2022/06/30 13:51:36;;;;;;;11.02;1.88;;;;;;;;;;5009965;28;20057;-63
2022/06/30 13:54:03;;;;;;;7.45;1.55;;;;;;;;;;5012784;28;20034;-62
2022/06/30 13:56:31;;;;;;;7.45;1.45;;;;;;;;;;5012065;28;20061;-63
2022/06/30 13:58:58;;;;;;;10.43;1.40;;;;;;;;;;5012143;28;20129;-62
2022/06/30 14:01:25;;;;;;;6.63;1.40;;;;;;;;;;5012722;28;20369;-63
2022/06/30 14:03:52;;;;;;;7.32;1.38;;;;;;;;;;5014002;28;20034;-63
2022/06/30 14:06:19;;;;;;;8.77;1.38;;;;;;;;;;5012738;28;20117;-64
2022/06/30 14:08:46;;;;;;;5.35;1.42;;;;;;;;;;5013784;28;20065;-62
2022/06/30 14:11:13;;;;;;;9.55;1.75;;;;;;;;;;5012949;28;20029;-63
2022/06/30 14:13:40;;;;;;;7.75;1.50;;;;;;;;;;5012724;28;20038;-62
2022/06/30 14:16:08;;;;;;;7.25;1.40;;;;;;;;;;5013596;28;20038;-63
2022/06/30 14:18:35;;;;;;;8.15;1.88;;;;;;;;;;5013177;28;20053;-63
2022/06/30 14:21:02;;;;;;;7.68;1.88;;;;;;;;;;5013660;28;20060;-62
2022/06/30 14:23:30;;;;;;;8.48;1.40;;;;;;;;;;5013223;28;20049;-62
2022/06/30 14:25:57;;;;;;;8.73;1.98;;;;;;;;;;4995867;28;20496;-62
2022/06/30 14:28:24;;;;;;;12.32;1.70;;;;;;;;;;5013076;28;20034;-62
2022/06/30 14:30:51;;;;;;;10.55;1.40;;;;;;;;;;4995966;28;20462;-62
2022/06/30 14:33:18;;;;;;;6.05;1.13;;;;;;;;;;5012872;28;20049;-62
2022/06/30 14:35:45;;;;;;;4.53;1.17;;;;;;;;;;5013513;28;20495;-62
2022/06/30 14:38:12;;;;;;;6.97;1.40;;;;;;;;;;5011433;28;20022;-63
2022/06/30 14:40:39;;;;;;;4.32;1.00;;;;;;;;;;5013377;28;20033;-61
2022/06/30 14:43:06;;;;;;;11.25;1.27;;;;;;;;;;5012651;28;20069;-61
2022/06/30 14:45:34;;;;;;;14.82;1.70;;;;;;;;;;5013220;28;20034;-62
2022/06/30 14:48:01;;;;;;;10.10;1.48;;;;;;;;;;5013238;28;20484;-62
2022/06/30 14:50:28;;;;;;;10.77;1.52;;;;;;;;;;5012358;28;20049;-61
2022/06/30 14:52:55;;;;;;;13.95;2.10;;;;;;;;;;5012129;28;20018;-61
2022/06/30 14:55:23;;;;;;;10.90;1.77;;;;;;;;;;5012386;28;20030;-62
2022/06/30 14:57:50;;;;;;;11.80;1.70;;;;;;;;;;5010751;28;20022;-61
2022/06/30 15:00:22;;;;;;;12.98;2.30;;;;;;;;;;5012283;28;20053;-62
2022/06/30 15:02:49;;;;;;;14.20;2.47;;;;;;;;;;5011112;28;20488;-62
2022/06/30 15:05:17;;;;;;;12.30;2.15;;;;;;;;;;5011754;28;20052;-62
2022/06/30 15:07:44;;;;;;;12.43;2.03;;;;;;;;;;4995980;28;20867;-62
2022/06/30 15:10:11;;;;;;;14.70;2.10;;;;;;;;;;4992894;28;20121;-62